Time;durP1;ratioP1;P1;durP2;ratioP2;P2;SDS_P1;SDS_P2;PMS_P1;PMS_P2;Temp;Humidity;BMP_temperature;BMP_pressure;BME280_temperature;BME280_humidity;BME280_pressure;Samples;Min_cycle;Max_cycle;Signal;HPM_P1;HPM_P2
2024/04/04 00:00:29;;;;;;;1.00;0.90;;;11.20;99.90;;;;;;4879628;29;20461;-68
2024/04/04 00:02:55;;;;;;;1.27;0.80;;;11.20;99.90;;;;;;4874065;29;20495;-68
2024/04/04 00:05:22;;;;;;;2.10;1.00;;;11.20;99.90;;;;;;4879054;29;21024;-68
2024/04/04 00:07:48;;;;;;;1.67;1.37;;;11.20;99.90;;;;;;4875482;29;20236;-68
2024/04/04 00:10:15;;;;;;;1.13;0.80;;;11.10;99.90;;;;;;4878328;29;20458;-68
2024/04/04 00:12:42;;;;;;;2.00;1.43;;;11.10;99.90;;;;;;4876973;29;20254;-68
2024/04/04 00:15:11;;;;;;;2.40;0.90;;;11.10;99.90;;;;;;4880382;29;20491;-68
2024/04/04 00:17:37;;;;;;;4.13;1.00;;;11.10;99.90;;;;;;4872539;29;20467;-68
2024/04/04 00:20:04;;;;;;;1.47;1.33;;;11.00;99.90;;;;;;4877336;29;20463;-68
2024/04/04 00:22:30;;;;;;;1.63;1.00;;;11.00;99.90;;;;;;4878824;29;20595;-68
2024/04/04 00:24:57;;;;;;;1.53;1.20;;;11.00;99.90;;;;;;4877307;29;20454;-67
2024/04/04 00:27:23;;;;;;;1.30;0.90;;;10.90;99.90;;;;;;4882062;29;20248;-68
2024/04/04 00:29:50;;;;;;;2.60;1.03;;;10.90;99.90;;;;;;4874358;29;20477;-67
2024/04/04 00:32:17;;;;;;;1.67;1.03;;;10.90;99.90;;;;;;4881258;29;20227;-68
2024/04/04 00:34:44;;;;;;;4.60;1.00;;;10.90;99.90;;;;;;4878469;29;20489;-68
2024/04/04 00:37:10;;;;;;;1.30;1.10;;;10.90;99.90;;;;;;4881985;29;20458;-67
2024/04/04 00:39:37;;;;;;;11.27;2.50;;;10.80;99.90;;;;;;4878839;29;20470;-68
2024/04/04 00:42:04;;;;;;;3.03;1.27;;;10.80;99.90;;;;;;4878780;29;20485;-68
2024/04/04 00:44:30;;;;;;;1.53;1.10;;;10.90;99.90;;;;;;4880510;29;21019;-67
2024/04/04 00:46:56;;;;;;;8.20;1.20;;;10.80;99.90;;;;;;4865489;29;20965;-67
2024/04/04 00:49:25;;;;;;;3.37;0.90;;;10.80;99.90;;;;;;4869345;29;20459;-67
2024/04/04 00:51:51;;;;;;;4.97;1.20;;;10.80;99.90;;;;;;4878202;29;20236;-68
2024/04/04 00:54:19;;;;;;;2.20;0.80;;;10.80;99.90;;;;;;4878341;29;20487;-67
2024/04/04 00:56:45;;;;;;;4.20;1.50;;;10.80;99.90;;;;;;4879445;29;21318;-67
2024/04/04 00:59:13;;;;;;;2.67;0.97;;;10.90;99.90;;;;;;4881930;29;20560;-67
2024/04/04 01:01:40;;;;;;;6.30;1.37;;;10.80;99.90;;;;;;4874949;29;20483;-68
2024/04/04 01:04:07;;;;;;;1.33;0.70;;;10.90;99.90;;;;;;4873796;29;20459;-67
2024/04/04 01:06:35;;;;;;;1.13;0.90;;;10.90;99.90;;;;;;4880435;29;20458;-68
2024/04/04 01:09:02;;;;;;;2.10;0.93;;;10.80;99.90;;;;;;4878094;29;20644;-68
2024/04/04 01:11:27;;;;;;;1.33;1.00;;;10.80;99.90;;;;;;4886700;29;20491;-68
2024/04/04 01:13:55;;;;;;;3.80;0.83;;;10.70;99.90;;;;;;4879456;29;20474;-68
2024/04/04 01:16:21;;;;;;;1.23;0.87;;;10.80;99.90;;;;;;4879932;29;20221;-69
2024/04/04 01:18:47;;;;;;;1.63;0.87;;;10.90;99.90;;;;;;4877840;29;20959;-68
2024/04/04 01:21:13;;;;;;;1.10;1.00;;;11.00;99.90;;;;;;4879734;29;21203;-68
2024/04/04 01:23:41;;;;;;;1.30;0.97;;;11.10;99.90;;;;;;4882096;29;20515;-69
2024/04/04 01:26:08;;;;;;;2.67;1.53;;;11.10;99.90;;;;;;4881960;29;20847;-68
2024/04/04 01:28:34;;;;;;;1.20;1.10;;;11.10;99.90;;;;;;4877483;29;20585;-68
2024/04/04 01:31:00;;;;;;;1.00;0.80;;;11.10;99.90;;;;;;4878328;29;20579;-68
2024/04/04 01:33:27;;;;;;;2.23;2.03;;;11.10;99.90;;;;;;4872425;29;20468;-68
2024/04/04 01:35:53;;;;;;;1.20;0.80;;;11.20;99.90;;;;;;4876202;29;20305;-68
2024/04/04 01:38:20;;;;;;;1.63;1.17;;;11.10;99.90;;;;;;4881706;29;21607;-68
2024/04/04 01:40:47;;;;;;;1.40;1.00;;;11.20;99.90;;;;;;4881143;29;21099;-69
2024/04/04 01:43:14;;;;;;;1.03;0.90;;;11.10;99.90;;;;;;4883140;29;21143;-69
2024/04/04 01:45:39;;;;;;;2.70;1.60;;;11.20;99.90;;;;;;4873856;29;20462;-68
2024/04/04 01:48:07;;;;;;;2.80;1.13;;;11.30;99.90;;;;;;4880328;29;20545;-69
2024/04/04 01:50:33;;;;;;;3.40;1.50;;;11.30;99.90;;;;;;4888196;29;20212;-68
2024/04/04 01:52:59;;;;;;;1.20;0.97;;;11.30;99.90;;;;;;4880663;29;20839;-69
2024/04/04 01:55:29;;;;;;;2.03;1.23;;;11.30;99.90;;;;;;4882405;29;20584;-68
2024/04/04 01:57:57;;;;;;;1.00;0.80;;;11.20;99.90;;;;;;4881830;29;20573;-68
2024/04/04 02:00:23;;;;;;;2.20;1.20;;;11.10;99.90;;;;;;4879398;29;20467;-70
2024/04/04 02:02:50;;;;;;;1.33;1.07;;;11.10;99.90;;;;;;4874331;29;20465;-68
2024/04/04 02:05:16;;;;;;;1.27;1.03;;;11.10;99.90;;;;;;4875154;29;21408;-68
2024/04/04 02:07:43;;;;;;;3.63;1.30;;;11.10;99.90;;;;;;4871611;29;20490;-67
2024/04/04 02:10:09;;;;;;;1.80;0.90;;;11.30;99.90;;;;;;4876725;29;20232;-68
2024/04/04 02:12:35;;;;;;;1.97;0.87;;;11.40;99.90;;;;;;4876338;29;21058;-68
2024/04/04 02:15:04;;;;;;;1.63;0.90;;;11.40;99.90;;;;;;4877044;29;20223;-68
2024/04/04 02:17:31;;;;;;;2.50;0.83;;;11.40;99.90;;;;;;4877437;29;21007;-68
2024/04/04 02:19:57;;;;;;;1.10;0.90;;;11.50;99.90;;;;;;4881238;29;20470;-68
2024/04/04 02:22:24;;;;;;;1.60;1.00;;;11.60;99.90;;;;;;4875967;29;20482;-68
2024/04/04 02:24:50;;;;;;;2.33;0.93;;;11.50;99.90;;;;;;4877393;29;20234;-68
2024/04/04 02:27:16;;;;;;;7.93;1.40;;;11.60;99.90;;;;;;4872050;29;20474;-68
2024/04/04 02:29:43;;;;;;;1.10;0.90;;;11.70;99.90;;;;;;4880012;29;20466;-68
2024/04/04 02:32:11;;;;;;;1.10;0.87;;;11.70;99.90;;;;;;4871263;29;20474;-68
2024/04/04 02:34:37;;;;;;;1.87;1.53;;;11.70;99.90;;;;;;4876117;29;20475;-68
2024/04/04 02:37:05;;;;;;;4.23;1.10;;;11.40;99.90;;;;;;4875958;29;20458;-68
2024/04/04 02:39:31;;;;;;;1.93;0.93;;;11.30;99.90;;;;;;4872640;29;20517;-67
2024/04/04 02:41:58;;;;;;;4.53;1.17;;;11.30;99.90;;;;;;4870074;29;20590;-68
2024/04/04 02:44:25;;;;;;;1.70;0.77;;;11.50;99.90;;;;;;4875156;29;20204;-68
2024/04/04 02:46:52;;;;;;;2.10;0.90;;;11.60;99.90;;;;;;4868364;29;21694;-68
2024/04/04 02:49:19;;;;;;;1.10;0.80;;;11.60;99.90;;;;;;4880604;29;21016;-68
2024/04/04 02:51:46;;;;;;;1.20;0.87;;;11.60;99.90;;;;;;4881200;29;20490;-68
2024/04/04 02:54:12;;;;;;;2.40;1.00;;;11.50;99.90;;;;;;4874207;29;21050;-68
2024/04/04 02:56:38;;;;;;;2.50;1.13;;;11.40;99.90;;;;;;4873513;29;20459;-69
2024/04/04 02:59:04;;;;;;;1.63;1.07;;;11.40;99.90;;;;;;4875539;29;20213;-68
2024/04/04 03:01:31;;;;;;;2.50;1.67;;;11.40;99.90;;;;;;4877121;29;20479;-69
2024/04/04 03:03:57;;;;;;;4.40;1.43;;;11.50;99.90;;;;;;4879149;29;20210;-68
2024/04/04 03:06:25;;;;;;;3.97;1.13;;;11.50;99.90;;;;;;4877378;29;20450;-69
2024/04/04 03:08:51;;;;;;;1.20;0.80;;;11.40;99.90;;;;;;4881961;29;20226;-69
2024/04/04 03:11:17;;;;;;;1.63;1.00;;;11.50;99.90;;;;;;4880774;29;20498;-68
2024/04/04 03:13:43;;;;;;;4.43;2.03;;;11.60;99.90;;;;;;4873447;29;20218;-68
2024/04/04 03:16:10;;;;;;;10.60;8.00;;;11.70;99.90;;;;;;4872267;29;20448;-68
2024/04/04 03:18:36;;;;;;;4.13;2.73;;;11.60;99.90;;;;;;4881704;29;20286;-68
2024/04/04 03:21:03;;;;;;;3.73;1.50;;;11.50;99.90;;;;;;4885572;29;20465;-68
2024/04/04 03:23:31;;;;;;;2.00;1.47;;;11.40;99.90;;;;;;4889898;29;20262;-68
2024/04/04 03:25:58;;;;;;;1.20;0.83;;;11.30;99.90;;;;;;4876532;29;20454;-68
2024/04/04 03:28:24;;;;;;;4.20;0.70;;;11.40;99.90;;;;;;4876055;29;20486;-68
2024/04/04 03:30:51;;;;;;;1.20;0.70;;;11.30;99.90;;;;;;4877550;29;20467;-69
2024/04/04 03:33:16;;;;;;;0.90;0.60;;;11.50;99.90;;;;;;4873991;29;20207;-69
2024/04/04 03:35:43;;;;;;;1.10;0.60;;;11.60;99.90;;;;;;4878979;29;20463;-69
2024/04/04 03:38:10;;;;;;;0.90;0.60;;;11.60;99.90;;;;;;4885309;29;20206;-68
2024/04/04 03:40:38;;;;;;;1.20;0.97;;;11.60;99.90;;;;;;4877126;29;20475;-68
2024/04/04 03:43:06;;;;;;;0.90;0.60;;;11.60;99.90;;;;;;4869258;29;20538;-68
2024/04/04 03:45:38;;;;;;;0.90;0.60;;;11.60;99.90;;;;;;4871306;29;21004;-68
2024/04/04 03:48:05;;;;;;;1.10;1.00;;;11.60;99.90;;;;;;4878473;29;20610;-68
2024/04/04 03:50:31;;;;;;;2.60;1.10;;;11.50;99.90;;;;;;4875656;29;20469;-68
2024/04/04 03:52:57;;;;;;;1.53;0.90;;;11.50;99.90;;;;;;4878938;29;20502;-68
2024/04/04 03:55:24;;;;;;;1.60;0.93;;;11.50;99.90;;;;;;4874249;29;20471;-68
2024/04/04 04:01:10;;;;;;;1.00;0.80;;;11.60;99.90;;;;;;4821223;29;21085;-68
2024/04/04 04:03:36;;;;;;;1.23;0.90;;;11.50;99.90;;;;;;4835813;29;20447;-69
2024/04/04 04:06:05;;;;;;;1.50;1.10;;;11.60;99.90;;;;;;4838023;29;20460;-69
2024/04/04 04:08:31;;;;;;;1.20;0.87;;;11.60;99.90;;;;;;4837402;29;20227;-69
2024/04/04 04:10:58;;;;;;;1.00;0.80;;;11.30;99.90;;;;;;4841710;29;20488;-69
2024/04/04 04:13:26;;;;;;;3.50;1.20;;;11.30;99.90;;;;;;4833822;29;20246;-69
2024/04/04 04:16:01;;;;;;;1.50;1.40;;;11.20;99.90;;;;;;4840197;29;20663;-69
2024/04/04 04:18:28;;;;;;;1.77;1.10;;;11.10;99.90;;;;;;4846599;29;20551;-69
2024/04/04 04:23:40;;;;;;;1.20;1.10;;;11.10;99.90;;;;;;4836651;29;20527;-69
2024/04/04 04:26:06;;;;;;;5.70;1.60;;;11.10;99.90;;;;;;4842639;29;20621;-69
2024/04/04 04:28:33;;;;;;;1.00;0.80;;;11.20;99.90;;;;;;4839308;29;20612;-69
2024/04/04 04:30:59;;;;;;;6.23;2.70;;;11.20;99.90;;;;;;4852188;29;20456;-69
2024/04/04 04:33:26;;;;;;;1.70;1.50;;;11.00;99.90;;;;;;4876841;29;21255;-69
2024/04/04 04:35:53;;;;;;;0.97;0.83;;;11.00;99.90;;;;;;4881350;29;20207;-69
2024/04/04 04:38:20;;;;;;;1.33;0.83;;;11.20;99.90;;;;;;4882392;29;20462;-68
2024/04/04 04:40:51;;;;;;;2.50;1.30;;;11.20;99.90;;;;;;4880271;29;20467;-69
2024/04/04 04:43:18;;;;;;;3.00;0.90;;;11.20;99.90;;;;;;4873735;29;20828;-69
2024/04/04 04:45:43;;;;;;;2.73;1.40;;;11.10;99.90;;;;;;4874284;29;20463;-68
2024/04/04 04:48:10;;;;;;;1.83;1.60;;;11.10;99.90;;;;;;4872221;29;21366;-68
2024/04/04 04:50:37;;;;;;;1.20;1.00;;;11.10;99.90;;;;;;4874372;29;20210;-68
2024/04/04 04:53:04;;;;;;;1.77;1.67;;;11.20;99.90;;;;;;4881948;29;20494;-68
2024/04/04 04:55:31;;;;;;;1.40;1.20;;;11.30;99.90;;;;;;4878664;29;20445;-68
2024/04/04 04:57:56;;;;;;;7.33;1.67;;;11.30;99.90;;;;;;4880583;29;20478;-69
2024/04/04 05:00:24;;;;;;;1.47;0.97;;;11.10;99.90;;;;;;4884012;29;20749;-69
2024/04/04 05:02:51;;;;;;;1.00;0.80;;;11.10;99.90;;;;;;4879757;29;20227;-68
2024/04/04 05:05:19;;;;;;;2.60;1.50;;;11.10;99.90;;;;;;4880720;29;20455;-69
2024/04/04 05:07:45;;;;;;;2.50;1.43;;;11.10;99.90;;;;;;4878598;29;21035;-69
2024/04/04 05:10:13;;;;;;;2.17;1.67;;;11.20;99.90;;;;;;4876833;29;20458;-69
2024/04/04 05:12:39;;;;;;;7.50;1.63;;;11.20;99.90;;;;;;4879818;29;20578;-69
2024/04/04 05:15:06;;;;;;;1.17;1.07;;;11.30;99.90;;;;;;4873681;29;20473;-69
2024/04/04 05:17:32;;;;;;;1.93;1.30;;;11.50;99.90;;;;;;4888270;29;20998;-68
2024/04/04 05:19:59;;;;;;;1.87;1.43;;;11.50;99.90;;;;;;4884981;29;20460;-68
2024/04/04 05:22:26;;;;;;;2.40;1.53;;;11.40;99.90;;;;;;4884798;29;20297;-68
2024/04/04 05:24:53;;;;;;;1.47;1.37;;;11.30;99.90;;;;;;4882622;29;20474;-68
2024/04/04 05:27:20;;;;;;;2.07;1.87;;;11.40;99.90;;;;;;4882111;29;20463;-67
2024/04/04 05:29:47;;;;;;;3.07;1.77;;;11.40;99.90;;;;;;4882284;29;20491;-68
2024/04/04 05:32:12;;;;;;;2.50;1.07;;;11.40;99.90;;;;;;4877715;29;20489;-68
2024/04/04 05:34:40;;;;;;;1.40;1.20;;;11.30;99.90;;;;;;4883564;29;20462;-68
2024/04/04 05:37:06;;;;;;;1.83;1.60;;;11.30;99.90;;;;;;4880801;29;20214;-68
2024/04/04 05:39:32;;;;;;;1.70;1.37;;;11.20;99.90;;;;;;4877306;29;20460;-68
2024/04/04 05:41:58;;;;;;;2.03;1.30;;;11.20;99.90;;;;;;4877255;29;20231;-68
2024/04/04 05:44:26;;;;;;;1.97;1.73;;;11.40;99.90;;;;;;4882584;29;20849;-68
2024/04/04 05:46:53;;;;;;;1.10;0.90;;;11.40;99.90;;;;;;4879829;29;20224;-68
2024/04/04 05:49:19;;;;;;;1.80;1.20;;;11.30;99.90;;;;;;4873799;29;20949;-68
2024/04/04 05:51:45;;;;;;;2.07;1.30;;;11.40;99.90;;;;;;4880475;29;21077;-68
2024/04/04 05:54:12;;;;;;;1.17;1.00;;;11.50;99.90;;;;;;4883541;29;20474;-68
2024/04/04 05:56:38;;;;;;;1.23;1.10;;;11.60;99.90;;;;;;4881932;29;20854;-69
2024/04/04 05:59:05;;;;;;;1.00;0.90;;;11.70;99.90;;;;;;4885488;29;20466;-68
2024/04/04 06:01:32;;;;;;;2.50;1.40;;;11.50;99.90;;;;;;4878042;29;21125;-67
2024/04/04 06:03:59;;;;;;;5.97;1.83;;;11.50;99.90;;;;;;4884730;29;20454;-67
2024/04/04 06:06:25;;;;;;;1.43;1.33;;;11.50;99.90;;;;;;4880965;29;20442;-67
2024/04/04 06:08:52;;;;;;;0.90;0.60;;;11.60;99.90;;;;;;4879522;29;20499;-67
2024/04/04 06:11:18;;;;;;;3.90;1.20;;;11.50;99.90;;;;;;4878738;29;20349;-67
2024/04/04 06:13:45;;;;;;;1.77;1.27;;;11.40;99.90;;;;;;4885501;29;20565;-67
2024/04/04 06:16:10;;;;;;;1.03;0.90;;;11.60;99.90;;;;;;4883986;29;20725;-68
2024/04/04 06:18:39;;;;;;;1.10;0.77;;;11.70;99.90;;;;;;4879957;29;20526;-67
2024/04/04 06:21:07;;;;;;;1.87;1.50;;;11.60;99.90;;;;;;4880219;29;20245;-67
2024/04/04 06:23:34;;;;;;;1.70;1.33;;;11.50;99.90;;;;;;4881278;29;20943;-68
2024/04/04 06:26:00;;;;;;;3.10;1.07;;;11.60;99.90;;;;;;4883752;29;20582;-68
2024/04/04 06:28:26;;;;;;;1.00;0.80;;;11.70;99.90;;;;;;4879945;29;20989;-67
2024/04/04 06:30:52;;;;;;;1.83;0.97;;;11.60;99.90;;;;;;4885801;29;20207;-68
2024/04/04 06:33:19;;;;;;;1.00;0.80;;;11.60;99.90;;;;;;4879096;29;20477;-68
2024/04/04 06:35:46;;;;;;;1.00;0.70;;;11.70;99.90;;;;;;4884347;29;20209;-68
2024/04/04 06:38:13;;;;;;;1.20;1.10;;;11.60;99.90;;;;;;4882302;29;20471;-68
2024/04/04 06:40:39;;;;;;;1.00;0.70;;;11.60;99.90;;;;;;4879549;29;20469;-68
2024/04/04 06:43:05;;;;;;;1.00;0.80;;;11.60;99.90;;;;;;4875930;29;20486;-68
2024/04/04 06:45:31;;;;;;;1.50;1.17;;;11.70;99.90;;;;;;4881034;29;20233;-68
2024/04/04 06:48:00;;;;;;;1.53;1.00;;;11.80;99.90;;;;;;4886450;29;20542;-68
2024/04/04 06:50:27;;;;;;;2.87;1.37;;;11.80;99.90;;;;;;4883141;29;20210;-68
2024/04/04 06:52:55;;;;;;;1.93;1.30;;;11.70;99.90;;;;;;4883220;29;20695;-68
2024/04/04 06:55:21;;;;;;;1.00;0.90;;;11.80;99.90;;;;;;4883148;29;20475;-68
2024/04/04 06:57:48;;;;;;;1.57;1.23;;;11.80;99.90;;;;;;4882205;29;20469;-68
2024/04/04 07:00:16;;;;;;;1.33;0.97;;;11.90;99.90;;;;;;4888379;29;20478;-68
2024/04/04 07:02:43;;;;;;;3.20;1.17;;;11.80;99.90;;;;;;4878518;29;20983;-68
2024/04/04 07:05:09;;;;;;;1.93;1.63;;;11.80;99.90;;;;;;4882349;29;21572;-68
2024/04/04 07:07:36;;;;;;;1.37;1.20;;;11.90;99.90;;;;;;4886114;29;20459;-68
2024/04/04 07:10:04;;;;;;;1.47;1.07;;;12.00;99.90;;;;;;4880924;29;20511;-68
2024/04/04 07:12:31;;;;;;;1.50;1.00;;;12.10;99.90;;;;;;4874086;29;20505;-67
2024/04/04 07:15:21;;;;;;;2.50;0.90;;;12.10;99.90;;;;;;4874398;29;20985;-68
2024/04/04 07:17:48;;;;;;;1.63;1.00;;;12.00;99.90;;;;;;4825462;29;20461;-68
2024/04/04 07:20:14;;;;;;;1.10;0.90;;;12.00;99.90;;;;;;4823043;29;20646;-68
2024/04/04 07:22:41;;;;;;;1.30;1.20;;;12.10;99.90;;;;;;4827972;29;20473;-68
2024/04/04 07:25:08;;;;;;;1.70;1.30;;;12.10;99.90;;;;;;4832139;29;20444;-68
2024/04/04 07:27:35;;;;;;;1.40;0.90;;;12.20;99.90;;;;;;4824272;29;20554;-68
2024/04/04 07:30:01;;;;;;;4.97;2.00;;;12.20;99.90;;;;;;4825629;29;20481;-68
2024/04/04 07:32:28;;;;;;;1.40;1.30;;;12.40;99.90;;;;;;4829535;29;21123;-68
2024/04/04 07:34:53;;;;;;;1.70;1.00;;;12.50;99.90;;;;;;4830241;29;20209;-68
2024/04/04 07:37:20;;;;;;;1.63;1.03;;;12.40;99.90;;;;;;4831066;29;21322;-68
2024/04/04 07:39:47;;;;;;;3.03;1.63;;;12.40;99.90;;;;;;4822223;29;20835;-68
2024/04/04 07:42:16;;;;;;;1.40;0.87;;;12.70;99.90;;;;;;4820328;29;20534;-68
2024/04/04 07:44:42;;;;;;;1.00;0.70;;;12.80;99.90;;;;;;4827469;29;20478;-68
2024/04/04 07:47:08;;;;;;;1.60;1.30;;;13.00;99.90;;;;;;4833133;29;21214;-68
2024/04/04 07:49:34;;;;;;;1.40;1.30;;;13.00;99.90;;;;;;4827483;29;20238;-68
2024/04/04 07:52:01;;;;;;;3.80;1.47;;;12.90;99.90;;;;;;4827890;29;20492;-68
2024/04/04 07:54:27;;;;;;;2.73;0.90;;;12.90;99.90;;;;;;4842190;29;20569;-68
2024/04/04 07:56:53;;;;;;;1.37;1.13;;;12.80;99.90;;;;;;4877703;29;20480;-68
2024/04/04 07:59:20;;;;;;;2.20;1.30;;;12.80;99.90;;;;;;4880163;29;20206;-69
2024/04/04 08:01:48;;;;;;;1.10;0.90;;;12.80;99.90;;;;;;4879699;29;20482;-69
2024/04/04 08:04:14;;;;;;;6.30;2.10;;;12.80;99.90;;;;;;4877960;29;20470;-68
2024/04/04 08:06:40;;;;;;;3.30;1.03;;;12.90;99.90;;;;;;4881712;29;20527;-69
2024/04/04 08:09:07;;;;;;;3.50;1.30;;;12.90;99.90;;;;;;4882274;29;20242;-69
2024/04/04 08:11:34;;;;;;;10.23;1.90;;;12.80;99.90;;;;;;4879250;29;20478;-68
2024/04/04 08:14:00;;;;;;;2.73;1.53;;;12.80;99.90;;;;;;4881241;29;20467;-68
2024/04/04 08:16:29;;;;;;;2.27;2.00;;;12.70;99.90;;;;;;4879308;29;20520;-68
2024/04/04 08:18:55;;;;;;;1.70;1.00;;;12.60;99.90;;;;;;4883549;29;20932;-68
2024/04/04 08:21:22;;;;;;;1.70;1.60;;;12.60;99.90;;;;;;4881866;29;20482;-69
2024/04/04 08:23:48;;;;;;;2.47;1.70;;;12.50;99.90;;;;;;4884613;29;20200;-68
2024/04/04 08:26:22;;;;;;;1.20;1.03;;;12.50;99.90;;;;;;4879050;29;20463;-68
2024/04/04 08:28:48;;;;;;;6.73;0.80;;;12.50;99.90;;;;;;4875972;29;20487;-67
2024/04/04 08:31:14;;;;;;;2.60;0.90;;;12.40;99.90;;;;;;4884489;29;20478;-67
2024/04/04 08:33:42;;;;;;;2.10;1.43;;;12.40;99.90;;;;;;4878642;29;20206;-67
2024/04/04 08:36:09;;;;;;;0.90;0.50;;;12.40;99.90;;;;;;4880360;29;20466;-67
2024/04/04 08:38:35;;;;;;;1.50;1.10;;;12.40;99.90;;;;;;4888193;29;20481;-67
2024/04/04 08:41:08;;;;;;;1.47;0.93;;;12.40;99.90;;;;;;4887095;29;20459;-68
2024/04/04 08:43:34;;;;;;;2.17;2.00;;;12.40;99.90;;;;;;4873695;29;20202;-68
2024/04/04 08:46:02;;;;;;;1.17;1.03;;;12.40;99.90;;;;;;4882266;29;20475;-68
2024/04/04 08:48:28;;;;;;;1.23;1.00;;;12.40;99.90;;;;;;4879604;29;20471;-68
2024/04/04 08:50:57;;;;;;;1.00;0.80;;;12.30;99.90;;;;;;4879642;29;20477;-68
2024/04/04 08:53:23;;;;;;;1.30;1.10;;;12.30;99.90;;;;;;4882241;29;20485;-68
2024/04/04 08:55:52;;;;;;;2.43;0.97;;;12.30;99.90;;;;;;4877567;29;20458;-68
2024/04/04 08:58:19;;;;;;;1.00;0.60;;;12.30;99.90;;;;;;4882445;29;20445;-68
2024/04/04 09:00:46;;;;;;;1.00;0.70;;;12.30;99.90;;;;;;4880711;29;20452;-68
2024/04/04 09:03:12;;;;;;;1.60;0.87;;;12.30;99.90;;;;;;4879000;29;20482;-68
2024/04/04 09:05:43;;;;;;;1.40;0.80;;;12.40;99.90;;;;;;4876299;29;20829;-68
2024/04/04 09:08:10;;;;;;;0.93;0.70;;;12.40;99.90;;;;;;4881923;29;20669;-68
2024/04/04 09:10:37;;;;;;;2.80;0.90;;;12.50;99.90;;;;;;4876948;29;20647;-68
2024/04/04 09:13:06;;;;;;;1.50;0.80;;;12.50;99.90;;;;;;4879532;29;20499;-68
2024/04/04 09:15:36;;;;;;;1.67;0.90;;;12.60;99.90;;;;;;4874343;29;20470;-68
2024/04/04 09:18:04;;;;;;;2.37;1.00;;;12.60;99.90;;;;;;4878051;29;20477;-68
2024/04/04 09:20:32;;;;;;;1.00;0.60;;;12.70;99.90;;;;;;4882446;29;20474;-69
2024/04/04 09:22:59;;;;;;;0.90;0.60;;;12.70;99.90;;;;;;4881876;29;20480;-68
2024/04/04 09:25:27;;;;;;;0.90;0.70;;;12.80;99.90;;;;;;4877358;29;20463;-68
2024/04/04 09:27:53;;;;;;;1.33;1.00;;;12.90;99.90;;;;;;4877974;29;21062;-68
2024/04/04 09:30:20;;;;;;;1.57;1.00;;;13.30;99.90;;;;;;4873319;29;20493;-68
2024/04/04 09:32:48;;;;;;;1.43;1.30;;;13.40;99.90;;;;;;4888256;29;20223;-68
2024/04/04 09:35:16;;;;;;;0.90;0.70;;;13.70;99.90;;;;;;4883402;29;20603;-68
2024/04/04 09:37:44;;;;;;;1.00;0.70;;;13.80;99.90;;;;;;4887591;29;20474;-68
2024/04/04 09:40:13;;;;;;;1.00;0.70;;;13.90;99.90;;;;;;4883213;29;20772;-68
2024/04/04 09:42:42;;;;;;;1.80;1.10;;;13.90;99.90;;;;;;4886246;29;20492;-68
2024/04/04 09:45:09;;;;;;;0.90;0.70;;;13.80;99.90;;;;;;4880614;29;20572;-68
2024/04/04 09:47:40;;;;;;;1.10;0.80;;;13.90;99.90;;;;;;4888197;29;20476;-68
2024/04/04 09:50:09;;;;;;;4.10;1.73;;;14.10;99.90;;;;;;4887956;29;20502;-69
2024/04/04 09:52:37;;;;;;;1.10;1.00;;;14.30;99.90;;;;;;4886631;29;20497;-68
2024/04/04 09:55:05;;;;;;;1.43;1.00;;;14.30;99.90;;;;;;4886967;29;20470;-68
2024/04/04 09:57:31;;;;;;;1.20;0.90;;;14.00;99.90;;;;;;4884164;29;20469;-68
2024/04/04 10:00:15;;;;;;;2.10;1.07;;;13.70;99.90;;;;;;4882719;29;20886;-68
2024/04/04 10:02:47;;;;;;;1.33;1.03;;;13.50;99.90;;;;;;4885671;29;20497;-68
2024/04/04 10:05:17;;;;;;;1.73;1.00;;;13.30;99.90;;;;;;4881189;29;20557;-68
2024/04/04 10:07:44;;;;;;;1.10;0.90;;;13.40;99.90;;;;;;4882819;29;20577;-68
2024/04/04 10:10:19;;;;;;;1.47;0.90;;;13.60;99.90;;;;;;4888086;29;20464;-69
2024/04/04 10:12:48;;;;;;;1.37;0.70;;;13.60;99.90;;;;;;4879342;29;20512;-68
2024/04/04 10:15:21;;;;;;;1.20;1.00;;;13.80;99.90;;;;;;4881553;29;20467;-68
2024/04/04 10:17:50;;;;;;;1.00;0.80;;;13.90;99.90;;;;;;4887864;29;20469;-68
2024/04/04 10:20:18;;;;;;;1.30;1.20;;;14.10;99.90;;;;;;4881918;29;20528;-69
2024/04/04 10:22:44;;;;;;;1.20;0.70;;;14.30;99.90;;;;;;4885038;29;20482;-69
2024/04/04 10:25:12;;;;;;;1.10;0.80;;;14.10;99.90;;;;;;4875082;29;20761;-68
2024/04/04 10:27:38;;;;;;;1.10;0.80;;;13.90;99.90;;;;;;4886508;29;20462;-68
2024/04/04 10:30:05;;;;;;;1.13;0.70;;;13.90;99.90;;;;;;4883722;29;20495;-67
2024/04/04 10:32:32;;;;;;;2.50;0.90;;;14.00;99.90;;;;;;4872689;29;20313;-70
2024/04/04 10:35:04;;;;;;;1.43;0.93;;;14.10;99.90;;;;;;4878733;29;20546;-69
2024/04/04 10:37:30;;;;;;;1.63;0.80;;;13.80;99.90;;;;;;4887772;29;21141;-68
2024/04/04 10:39:58;;;;;;;1.60;0.90;;;13.90;99.90;;;;;;4880887;29;20459;-69
2024/04/04 10:42:25;;;;;;;1.27;1.03;;;14.00;99.90;;;;;;4878619;29;20487;-69
2024/04/04 10:44:53;;;;;;;1.20;0.90;;;14.00;99.90;;;;;;4888516;29;20466;-69
2024/04/04 10:47:19;;;;;;;9.30;4.23;;;14.20;99.90;;;;;;4880685;29;20681;-69
2024/04/04 10:49:47;;;;;;;1.10;0.87;;;14.30;99.90;;;;;;4880312;29;20518;-69
2024/04/04 10:52:15;;;;;;;1.10;0.90;;;14.50;99.90;;;;;;4887552;29;20505;-69
2024/04/04 10:54:42;;;;;;;1.00;0.80;;;14.40;99.90;;;;;;4882706;29;20463;-69
2024/04/04 10:57:08;;;;;;;2.00;1.20;;;14.40;99.90;;;;;;4881654;29;20515;-69
2024/04/04 10:59:35;;;;;;;3.07;1.50;;;14.50;99.90;;;;;;4885613;29;21102;-69
2024/04/04 11:02:04;;;;;;;1.50;1.30;;;14.50;99.90;;;;;;4884563;29;20490;-69
2024/04/04 11:04:31;;;;;;;1.40;1.30;;;14.50;99.90;;;;;;4883671;29;20531;-69
2024/04/04 11:06:59;;;;;;;1.97;1.40;;;14.60;99.90;;;;;;4883074;29;20964;-69
2024/04/04 11:09:27;;;;;;;2.23;1.30;;;14.80;99.90;;;;;;4882235;29;20494;-68
2024/04/04 11:11:54;;;;;;;1.83;1.20;;;15.00;99.90;;;;;;4881126;29;20480;-69
2024/04/04 11:14:22;;;;;;;1.17;0.87;;;15.30;99.90;;;;;;4874272;29;20479;-68
2024/04/04 11:16:49;;;;;;;1.97;1.60;;;15.40;99.90;;;;;;4885799;29;20843;-69
2024/04/04 11:19:17;;;;;;;1.40;1.10;;;15.30;99.90;;;;;;4876034;29;20810;-68
2024/04/04 11:21:44;;;;;;;1.40;1.13;;;15.20;99.90;;;;;;4883487;29;20980;-69
2024/04/04 11:24:12;;;;;;;1.00;0.80;;;15.10;99.90;;;;;;4889872;29;20867;-69
2024/04/04 11:26:38;;;;;;;2.33;0.90;;;15.10;99.90;;;;;;4875872;29;20463;-68
2024/04/04 11:29:05;;;;;;;1.63;1.17;;;15.10;99.90;;;;;;4885228;29;20455;-69
2024/04/04 11:31:31;;;;;;;1.00;0.80;;;15.20;99.90;;;;;;4888340;29;20237;-68
2024/04/04 11:33:57;;;;;;;1.77;1.20;;;15.10;99.90;;;;;;4879535;29;20462;-68
2024/04/04 11:36:23;;;;;;;1.57;0.80;;;15.20;99.90;;;;;;4882098;29;20659;-68
2024/04/04 11:38:50;;;;;;;1.30;0.80;;;15.40;99.90;;;;;;4882378;29;20454;-68
2024/04/04 11:41:17;;;;;;;0.97;0.77;;;15.20;99.90;;;;;;4879798;29;20231;-68
2024/04/04 11:43:44;;;;;;;2.40;0.93;;;15.10;99.90;;;;;;4885419;29;20470;-68
2024/04/04 11:46:12;;;;;;;1.73;1.10;;;15.10;99.90;;;;;;4880525;29;21174;-68
2024/04/04 11:48:39;;;;;;;2.80;1.33;;;15.10;99.90;;;;;;4884014;29;20463;-68
2024/04/04 11:51:05;;;;;;;1.20;1.00;;;15.00;99.90;;;;;;4883537;29;20504;-68
2024/04/04 11:53:31;;;;;;;1.20;1.00;;;15.00;99.90;;;;;;4884118;29;20467;-69
2024/04/04 11:55:57;;;;;;;1.70;1.00;;;14.90;99.90;;;;;;4881831;29;20474;-68
2024/04/04 11:58:27;;;;;;;1.83;0.80;;;15.00;99.90;;;;;;4884267;29;20466;-67
2024/04/04 12:00:53;;;;;;;0.90;0.70;;;15.10;99.90;;;;;;4880517;29;20507;-68
2024/04/04 12:03:20;;;;;;;1.63;0.90;;;15.20;99.90;;;;;;4881426;29;20546;-68
2024/04/04 12:05:45;;;;;;;3.53;1.07;;;15.30;99.90;;;;;;4883400;29;20557;-68
2024/04/04 12:08:12;;;;;;;6.13;1.40;;;15.50;99.90;;;;;;4884592;29;20598;-67
2024/04/04 12:10:39;;;;;;;1.27;0.93;;;15.60;99.90;;;;;;4875280;29;20323;-68
2024/04/04 12:13:05;;;;;;;4.60;0.90;;;15.80;99.90;;;;;;4870479;29;20490;-68
2024/04/04 12:15:32;;;;;;;1.90;1.03;;;15.70;99.90;;;;;;4882919;29;20486;-67
2024/04/04 12:20:40;;;;;;;1.37;0.83;;;15.70;99.90;;;;;;4879669;29;20555;-68
2024/04/04 12:23:07;;;;;;;0.90;0.60;;;15.60;99.90;;;;;;4881050;29;20520;-67
2024/04/04 12:25:32;;;;;;;0.90;0.60;;;15.60;99.90;;;;;;4878507;29;20565;-68
2024/04/04 12:28:00;;;;;;;1.03;0.80;;;15.40;99.90;;;;;;4882330;29;20546;-68
2024/04/04 12:30:26;;;;;;;0.90;0.60;;;15.30;99.90;;;;;;4882230;29;20231;-68
2024/04/04 12:32:54;;;;;;;0.90;0.60;;;15.30;99.90;;;;;;4884536;29;20489;-69
2024/04/04 12:35:20;;;;;;;0.90;0.53;;;15.30;99.90;;;;;;4882520;29;20600;-68
2024/04/04 12:37:47;;;;;;;0.90;0.50;;;15.50;99.90;;;;;;4883201;29;20473;-67
2024/04/04 12:40:13;;;;;;;2.23;1.10;;;16.10;99.90;;;;;;4879828;29;20302;-69
2024/04/04 12:42:40;;;;;;;3.93;1.63;;;16.80;99.90;;;;;;4882153;29;20490;-68
2024/04/04 12:45:06;;;;;;;1.33;1.20;;;16.40;99.90;;;;;;4879412;29;20481;-68
2024/04/04 12:47:33;;;;;;;1.83;1.20;;;16.20;99.90;;;;;;4878352;29;20455;-68
2024/04/04 12:50:00;;;;;;;1.50;1.00;;;16.00;99.90;;;;;;4886805;29;20777;-68
2024/04/04 12:52:28;;;;;;;1.57;0.77;;;16.00;99.90;;;;;;4876074;29;20523;-70